Time;durP1;ratioP1;P1;durP2;ratioP2;P2;SDS_P1;SDS_P2;PMS_P1;PMS_P2;Temp;Humidity;BMP_temperature;BMP_pressure;BME280_temperature;BME280_humidity;BME280_pressure;Samples;Min_cycle;Max_cycle;Signal;HPM_P1;HPM_P2
2022/06/27 00:00:31;;;;;;;0.70;0.70;;;;;;;;;;4934360;29;20436;-64
2022/06/27 00:02:56;;;;;;;1.20;0.40;;;;;;;;;;4933883;29;20956;-65
2022/06/27 00:05:23;;;;;;;0.60;0.60;;;;;;;;;;4935442;29;20456;-65
2022/06/27 00:07:49;;;;;;;3.70;0.70;;;;;;;;;;4933317;29;20432;-65
2022/06/27 00:10:15;;;;;;;0.70;0.70;;;;;;;;;;4935495;29;20522;-65
2022/06/27 00:12:41;;;;;;;0.53;0.50;;;;;;;;;;4935127;29;20440;-66
2022/06/27 00:15:08;;;;;;;0.60;0.57;;;;;;;;;;4934089;29;20535;-65
2022/06/27 00:17:34;;;;;;;0.60;0.60;;;;;;;;;;4934744;29;20780;-65
2022/06/27 00:20:00;;;;;;;0.60;0.60;;;;;;;;;;4935344;29;21004;-65
2022/06/27 00:22:27;;;;;;;1.33;0.60;;;;;;;;;;4934668;29;20544;-65
2022/06/27 00:24:53;;;;;;;1.53;0.60;;;;;;;;;;4933563;29;20439;-65
2022/06/27 00:27:19;;;;;;;0.87;0.87;;;;;;;;;;4930922;29;20507;-65
2022/06/27 00:29:45;;;;;;;0.40;0.40;;;;;;;;;;4933460;29;20491;-65
2022/06/27 00:32:11;;;;;;;4.07;0.60;;;;;;;;;;4934500;29;20467;-65
2022/06/27 00:34:37;;;;;;;1.17;0.60;;;;;;;;;;4931374;29;20455;-65
2022/06/27 00:37:04;;;;;;;1.00;0.77;;;;;;;;;;4932636;29;20490;-67
2022/06/27 00:39:30;;;;;;;0.90;0.90;;;;;;;;;;4932428;29;20810;-65
2022/06/27 00:41:56;;;;;;;2.10;0.47;;;;;;;;;;4934604;29;20424;-65
2022/06/27 00:44:31;;;;;;;0.53;0.53;;;;;;;;;;4932798;29;20535;-65
2022/06/27 00:46:57;;;;;;;0.50;0.50;;;;;;;;;;4932150;29;20479;-65
2022/06/27 00:49:23;;;;;;;4.93;0.50;;;;;;;;;;4931288;29;20495;-65
2022/06/27 00:51:49;;;;;;;0.60;0.60;;;;;;;;;;4932339;29;20444;-65
2022/06/27 00:54:15;;;;;;;6.37;0.97;;;;;;;;;;4931242;29;20443;-65
2022/06/27 00:56:42;;;;;;;1.03;0.60;;;;;;;;;;4932953;29;20440;-64
2022/06/27 00:59:07;;;;;;;0.60;0.60;;;;;;;;;;4931716;29;20550;-65
2022/06/27 01:01:33;;;;;;;6.40;0.60;;;;;;;;;;4930829;29;20936;-65
2022/06/27 01:04:01;;;;;;;2.10;0.60;;;;;;;;;;4931985;29;20441;-66
2022/06/27 01:06:27;;;;;;;0.80;0.80;;;;;;;;;;4930833;29;20571;-65
2022/06/27 01:08:53;;;;;;;0.50;0.50;;;;;;;;;;4932679;29;20488;-65
2022/06/27 01:11:20;;;;;;;0.50;0.50;;;;;;;;;;4933004;29;20452;-65
2022/06/27 01:13:46;;;;;;;0.53;0.53;;;;;;;;;;4931495;29;20459;-65
2022/06/27 01:16:12;;;;;;;0.80;0.80;;;;;;;;;;4928904;29;20455;-65
2022/06/27 01:18:38;;;;;;;0.53;0.53;;;;;;;;;;4930040;29;20432;-65
2022/06/27 01:21:05;;;;;;;0.73;0.73;;;;;;;;;;4931287;29;20442;-66
2022/06/27 01:23:31;;;;;;;1.07;0.60;;;;;;;;;;4931002;29;20451;-65
2022/06/27 01:25:57;;;;;;;0.80;0.80;;;;;;;;;;4931338;29;20440;-65
2022/06/27 01:28:23;;;;;;;0.70;0.63;;;;;;;;;;4928193;29;20440;-65
2022/06/27 01:30:49;;;;;;;0.80;0.80;;;;;;;;;;4928301;29;20633;-65
2022/06/27 01:33:15;;;;;;;0.50;0.50;;;;;;;;;;4931490;29;20955;-65
2022/06/27 01:35:41;;;;;;;3.63;0.80;;;;;;;;;;4930234;29;20428;-65
2022/06/27 01:38:07;;;;;;;1.23;0.80;;;;;;;;;;4930068;29;20962;-65
2022/06/27 01:40:33;;;;;;;0.80;0.80;;;;;;;;;;4930447;29;20951;-65
2022/06/27 01:42:59;;;;;;;1.00;0.87;;;;;;;;;;4929798;29;20540;-65
2022/06/27 01:45:25;;;;;;;1.30;1.00;;;;;;;;;;4931281;29;20478;-66
2022/06/27 01:47:51;;;;;;;3.70;0.87;;;;;;;;;;4932045;29;21068;-65
2022/06/27 01:50:20;;;;;;;0.63;0.63;;;;;;;;;;4932060;29;20491;-65
2022/06/27 01:52:49;;;;;;;0.87;0.87;;;;;;;;;;4929729;29;20474;-65
2022/06/27 01:55:15;;;;;;;1.13;0.90;;;;;;;;;;4930741;29;20958;-64
2022/06/27 01:57:41;;;;;;;1.63;1.10;;;;;;;;;;4930551;29;20443;-65
2022/06/27 02:00:09;;;;;;;0.87;0.87;;;;;;;;;;4928381;29;20487;-65
2022/06/27 02:02:35;;;;;;;1.30;0.83;;;;;;;;;;4931965;29;20436;-65
2022/06/27 02:05:02;;;;;;;3.50;0.73;;;;;;;;;;4931578;29;20810;-65
2022/06/27 02:07:28;;;;;;;0.77;0.77;;;;;;;;;;4931745;29;20479;-65
2022/06/27 02:09:54;;;;;;;0.50;0.50;;;;;;;;;;4931268;29;20484;-65
2022/06/27 02:12:21;;;;;;;0.77;0.77;;;;;;;;;;4933005;29;20436;-65
2022/06/27 02:14:47;;;;;;;1.13;0.73;;;;;;;;;;4930415;29;20451;-65
2022/06/27 02:17:13;;;;;;;3.83;3.07;;;;;;;;;;4931165;29;20856;-65
2022/06/27 02:19:41;;;;;;;3.17;0.80;;;;;;;;;;4931001;29;20539;-65
2022/06/27 02:22:07;;;;;;;0.60;0.60;;;;;;;;;;4931680;29;20448;-65
2022/06/27 02:24:33;;;;;;;2.80;0.77;;;;;;;;;;4932758;29;20817;-65
2022/06/27 02:26:59;;;;;;;0.60;0.60;;;;;;;;;;4930712;29;21005;-65
2022/06/27 02:29:25;;;;;;;2.53;0.90;;;;;;;;;;4930401;29;20570;-65
2022/06/27 02:31:51;;;;;;;1.07;0.80;;;;;;;;;;4931097;29;20446;-65
2022/06/27 02:34:18;;;;;;;0.77;0.70;;;;;;;;;;4930532;29;20432;-65
2022/06/27 02:36:44;;;;;;;3.27;1.00;;;;;;;;;;4931924;29;20565;-65
2022/06/27 02:39:15;;;;;;;0.77;0.77;;;;;;;;;;4931937;29;20491;-65
2022/06/27 02:41:43;;;;;;;0.93;0.70;;;;;;;;;;4931874;29;20443;-64
2022/06/27 02:44:10;;;;;;;5.00;0.93;;;;;;;;;;4928941;29;20810;-66
2022/06/27 02:46:37;;;;;;;0.93;0.93;;;;;;;;;;4929043;29;20440;-65
2022/06/27 02:49:03;;;;;;;0.83;0.83;;;;;;;;;;4932767;29;20487;-65
2022/06/27 02:51:31;;;;;;;2.00;1.07;;;;;;;;;;4931151;29;20502;-65
2022/06/27 02:53:57;;;;;;;2.00;1.07;;;;;;;;;;4931784;29;20927;-65
2022/06/27 02:56:26;;;;;;;0.70;0.70;;;;;;;;;;4929189;29;20447;-66
2022/06/27 02:58:54;;;;;;;0.90;0.73;;;;;;;;;;4932045;29;20608;-65
2022/06/27 03:01:20;;;;;;;0.80;0.80;;;;;;;;;;4932105;29;20459;-65
2022/06/27 03:03:48;;;;;;;4.27;0.97;;;;;;;;;;4932392;29;20424;-65
2022/06/27 03:06:14;;;;;;;2.97;0.63;;;;;;;;;;4930602;29;21047;-66
2022/06/27 03:08:40;;;;;;;2.23;1.00;;;;;;;;;;4932360;29;20562;-64
2022/06/27 03:11:07;;;;;;;1.00;1.00;;;;;;;;;;4932336;29;20479;-65
2022/06/27 03:13:33;;;;;;;0.77;0.77;;;;;;;;;;4932246;29;20793;-64
2022/06/27 03:15:59;;;;;;;1.67;0.60;;;;;;;;;;4937844;29;20438;-65
2022/06/27 03:18:25;;;;;;;0.60;0.60;;;;;;;;;;4934317;29;20439;-65
2022/06/27 03:20:51;;;;;;;0.60;0.60;;;;;;;;;;4936913;29;20542;-65
2022/06/27 03:23:18;;;;;;;1.20;1.10;;;;;;;;;;4935669;29;20484;-65
2022/06/27 03:25:44;;;;;;;4.10;0.90;;;;;;;;;;4937926;29;20450;-65
2022/06/27 03:28:10;;;;;;;1.10;1.10;;;;;;;;;;4934996;29;20427;-66
2022/06/27 03:30:36;;;;;;;1.33;0.90;;;;;;;;;;4936255;29;20492;-65
2022/06/27 03:33:02;;;;;;;0.70;0.70;;;;;;;;;;4935966;29;20478;-65
2022/06/27 03:35:28;;;;;;;1.30;1.00;;;;;;;;;;4938071;29;20873;-65
2022/06/27 03:37:54;;;;;;;1.60;1.30;;;;;;;;;;4936979;29;20447;-65
2022/06/27 03:40:20;;;;;;;0.73;0.73;;;;;;;;;;4937653;29;20443;-67
2022/06/27 03:42:46;;;;;;;4.57;0.70;;;;;;;;;;4938572;29;20644;-65
2022/06/27 03:45:12;;;;;;;1.33;1.30;;;;;;;;;;4937651;29;20442;-65
2022/06/27 03:47:51;;;;;;;1.00;1.00;;;;;;;;;;4937341;29;20450;-65
2022/06/27 03:50:18;;;;;;;2.40;0.87;;;;;;;;;;4934695;29;20963;-65
2022/06/27 03:52:44;;;;;;;7.80;1.00;;;;;;;;;;4935957;29;20817;-66
2022/06/27 03:55:11;;;;;;;0.77;0.77;;;;;;;;;;4938351;29;20438;-65
2022/06/27 03:57:38;;;;;;;6.80;0.90;;;;;;;;;;4937952;29;20423;-65
2022/06/27 04:00:09;;;;;;;3.27;1.23;;;;;;;;;;4937363;29;20919;-65
2022/06/27 04:02:36;;;;;;;0.70;0.70;;;;;;;;;;4938269;29;20443;-65
2022/06/27 04:05:03;;;;;;;3.60;0.90;;;;;;;;;;4936460;29;20875;-65
2022/06/27 04:07:29;;;;;;;0.87;0.87;;;;;;;;;;4937763;29;20447;-67
2022/06/27 04:09:55;;;;;;;5.70;0.70;;;;;;;;;;4938404;29;20486;-65
2022/06/27 04:12:21;;;;;;;1.90;0.90;;;;;;;;;;4936973;29;20431;-66
2022/06/27 04:14:47;;;;;;;0.70;0.70;;;;;;;;;;4938256;29;20451;-65
2022/06/27 04:17:13;;;;;;;4.80;0.80;;;;;;;;;;4935885;29;20431;-65
2022/06/27 04:19:39;;;;;;;0.93;0.93;;;;;;;;;;4938195;29;21005;-65
2022/06/27 04:22:05;;;;;;;0.87;0.87;;;;;;;;;;4936692;29;20432;-65
2022/06/27 04:24:30;;;;;;;6.63;1.10;;;;;;;;;;4938134;29;20223;-65
2022/06/27 04:26:57;;;;;;;1.53;1.10;;;;;;;;;;4933985;29;20475;-66
2022/06/27 04:29:23;;;;;;;1.30;1.00;;;;;;;;;;4932031;29;20555;-65
2022/06/27 04:31:50;;;;;;;4.40;0.97;;;;;;;;;;4932527;29;20447;-65
2022/06/27 04:34:16;;;;;;;1.17;0.90;;;;;;;;;;4933908;29;20444;-65
2022/06/27 04:36:42;;;;;;;0.93;0.93;;;;;;;;;;4934217;29;20552;-65
2022/06/27 04:39:13;;;;;;;1.20;1.20;;;;;;;;;;4933404;29;20443;-65
2022/06/27 04:41:39;;;;;;;1.23;0.90;;;;;;;;;;4932169;29;20970;-65
2022/06/27 04:44:05;;;;;;;1.10;1.10;;;;;;;;;;4932701;29;20436;-66
2022/06/27 04:46:31;;;;;;;1.30;1.20;;;;;;;;;;4933175;29;20840;-65
2022/06/27 04:48:57;;;;;;;1.10;1.10;;;;;;;;;;4933231;29;21037;-65
2022/06/27 04:51:23;;;;;;;1.73;1.60;;;;;;;;;;4932115;29;20691;-64
2022/06/27 04:53:50;;;;;;;1.60;1.60;;;;;;;;;;4932371;29;20839;-65
2022/06/27 04:56:16;;;;;;;1.87;1.17;;;;;;;;;;4932945;29;20939;-64
2022/06/27 04:58:42;;;;;;;1.60;1.50;;;;;;;;;;4932845;29;20467;-67
2022/06/27 05:01:08;;;;;;;6.43;3.10;;;;;;;;;;4933222;29;20459;-65
2022/06/27 05:03:34;;;;;;;1.50;1.47;;;;;;;;;;4931872;29;20432;-65
2022/06/27 05:06:00;;;;;;;1.17;1.17;;;;;;;;;;4932668;29;20463;-65
2022/06/27 05:08:26;;;;;;;2.30;1.43;;;;;;;;;;4933845;29;20877;-65
2022/06/27 05:10:52;;;;;;;8.90;1.30;;;;;;;;;;4932550;29;20564;-65
2022/06/27 05:13:18;;;;;;;1.77;1.10;;;;;;;;;;4931336;29;20195;-64
2022/06/27 05:15:44;;;;;;;1.50;1.40;;;;;;;;;;4931398;29;20199;-64
2022/06/27 05:18:10;;;;;;;2.00;1.40;;;;;;;;;;4932427;29;20440;-66
2022/06/27 05:20:36;;;;;;;2.83;1.20;;;;;;;;;;4929689;29;21040;-65
2022/06/27 05:23:02;;;;;;;1.73;1.70;;;;;;;;;;4930037;29;21090;-65
2022/06/27 05:25:28;;;;;;;3.07;2.30;;;;;;;;;;4930432;29;20436;-64
2022/06/27 05:27:56;;;;;;;1.57;1.47;;;;;;;;;;4931849;29;20438;-65
2022/06/27 05:30:22;;;;;;;2.43;0.97;;;;;;;;;;4932172;29;21019;-65
2022/06/27 05:32:48;;;;;;;3.60;1.50;;;;;;;;;;4929116;29;20458;-65
2022/06/27 05:35:14;;;;;;;1.93;1.83;;;;;;;;;;4932555;29;20446;-64
2022/06/27 05:37:43;;;;;;;1.20;1.20;;;;;;;;;;4930601;29;21157;-65
2022/06/27 05:40:09;;;;;;;1.63;1.53;;;;;;;;;;4928453;29;20436;-65
2022/06/27 05:42:36;;;;;;;1.17;1.00;;;;;;;;;;4927083;29;20435;-64
2022/06/27 05:45:03;;;;;;;5.50;2.53;;;;;;;;;;4930490;29;20507;-65
2022/06/27 05:47:30;;;;;;;1.53;1.43;;;;;;;;;;4928848;29;20444;-64
2022/06/27 05:49:59;;;;;;;1.80;1.70;;;;;;;;;;4931404;29;20490;-65
2022/06/27 05:52:25;;;;;;;3.60;2.43;;;;;;;;;;4930436;29;20432;-66
2022/06/27 05:54:52;;;;;;;1.60;1.50;;;;;;;;;;4929791;29;20642;-64
2022/06/27 05:57:18;;;;;;;5.50;2.03;;;;;;;;;;4929611;29;21513;-65
2022/06/27 05:59:44;;;;;;;1.90;1.80;;;;;;;;;;4932066;29;20490;-64
2022/06/27 06:02:10;;;;;;;3.90;1.70;;;;;;;;;;4929148;29;20936;-65
2022/06/27 06:04:36;;;;;;;4.07;1.87;;;;;;;;;;4928132;29;20448;-65
2022/06/27 06:07:04;;;;;;;5.80;2.23;;;;;;;;;;4930491;29;20474;-64
2022/06/27 06:09:32;;;;;;;3.90;1.60;;;;;;;;;;4929208;29;20603;-64
2022/06/27 06:11:58;;;;;;;4.30;2.80;;;;;;;;;;4932927;29;20443;-65
2022/06/27 06:14:24;;;;;;;2.30;2.00;;;;;;;;;;4932899;29;20488;-65
2022/06/27 06:16:51;;;;;;;2.20;2.10;;;;;;;;;;4930587;29;20436;-65
2022/06/27 06:19:17;;;;;;;1.57;1.57;;;;;;;;;;4931525;29;20432;-65
2022/06/27 06:21:43;;;;;;;2.47;2.37;;;;;;;;;;4932335;29;20472;-64
2022/06/27 06:24:09;;;;;;;2.70;2.30;;;;;;;;;;4930570;29;20811;-64
2022/06/27 06:26:35;;;;;;;3.67;2.47;;;;;;;;;;4928382;29;20432;-64
2022/06/27 06:29:12;;;;;;;2.40;2.20;;;;;;;;;;4928077;29;20542;-65
2022/06/27 06:31:43;;;;;;;3.93;2.50;;;;;;;;;;4932294;29;20424;-65
2022/06/27 06:34:09;;;;;;;1.80;1.80;;;;;;;;;;4931660;29;20432;-65
2022/06/27 06:36:36;;;;;;;2.70;2.00;;;;;;;;;;4930757;29;20432;-65
2022/06/27 06:39:03;;;;;;;6.90;2.23;;;;;;;;;;4932215;29;20436;-65
2022/06/27 06:41:29;;;;;;;1.80;1.80;;;;;;;;;;4932034;29;20459;-66
2022/06/27 06:43:56;;;;;;;1.80;1.70;;;;;;;;;;4932092;29;20440;-66
2022/06/27 06:46:24;;;;;;;4.93;2.70;;;;;;;;;;4932555;29;20451;-66
2022/06/27 06:48:53;;;;;;;5.30;2.70;;;;;;;;;;4932537;29;20543;-69
2022/06/27 06:51:20;;;;;;;10.27;2.00;;;;;;;;;;4931439;29;20447;-66
2022/06/27 06:53:46;;;;;;;12.77;2.50;;;;;;;;;;4931355;29;20450;-65
2022/06/27 06:56:12;;;;;;;1.83;1.83;;;;;;;;;;4932281;29;20420;-66
2022/06/27 06:58:38;;;;;;;2.50;2.30;;;;;;;;;;4932664;29;20463;-66
2022/06/27 07:01:06;;;;;;;2.47;2.30;;;;;;;;;;4932357;29;20541;-65
2022/06/27 07:03:33;;;;;;;1.97;1.87;;;;;;;;;;4932556;29;20428;-70
2022/06/27 07:05:59;;;;;;;1.70;1.67;;;;;;;;;;4926645;29;20515;-66
2022/06/27 07:08:26;;;;;;;1.57;1.57;;;;;;;;;;4931130;29;20455;-66
2022/06/27 07:10:52;;;;;;;11.50;2.20;;;;;;;;;;4932683;29;20435;-66
2022/06/27 07:13:19;;;;;;;3.40;3.13;;;;;;;;;;4932322;29;20424;-66
2022/06/27 07:15:45;;;;;;;3.17;2.80;;;;;;;;;;4932260;29;20475;-66
2022/06/27 07:18:13;;;;;;;1.60;1.60;;;;;;;;;;4930638;29;20432;-66
2022/06/27 07:20:40;;;;;;;1.70;1.60;;;;;;;;;;4932680;29;20428;-65
2022/06/27 07:23:06;;;;;;;1.73;1.63;;;;;;;;;;4931961;29;20944;-65
2022/06/27 07:25:35;;;;;;;2.63;1.10;;;;;;;;;;4932234;29;20474;-67
2022/06/27 07:28:01;;;;;;;3.53;1.60;;;;;;;;;;4932129;29;20423;-66
2022/06/27 07:30:28;;;;;;;1.00;1.00;;;;;;;;;;4930325;29;20491;-64
2022/06/27 07:32:54;;;;;;;2.00;1.53;;;;;;;;;;4932047;29;20440;-66
2022/06/27 07:35:20;;;;;;;1.30;1.30;;;;;;;;;;4932138;29;20440;-66
2022/06/27 07:37:51;;;;;;;1.60;1.30;;;;;;;;;;4931555;29;20443;-66
2022/06/27 07:40:19;;;;;;;2.40;1.33;;;;;;;;;;4932153;29;21134;-65
2022/06/27 07:42:45;;;;;;;1.95;1.85;;;;;;;;;;4930587;29;20478;-70
2022/06/27 07:45:14;;;;;;;1.83;1.77;;;;;;;;;;4930789;29;20190;-67
2022/06/27 07:47:40;;;;;;;1.47;1.47;;;;;;;;;;4931465;29;20427;-65
2022/06/27 07:50:07;;;;;;;2.67;2.27;;;;;;;;;;4932139;29;20491;-65
2022/06/27 07:53:11;;;;;;;2.00;1.43;;;;;;;;;;4931575;29;20450;-69
2022/06/27 07:55:24;;;;;;;1.10;1.10;;;;;;;;;;4930073;29;20447;-65
2022/06/27 07:57:52;;;;;;;1.20;1.20;;;;;;;;;;4931380;29;20542;-68
2022/06/27 08:00:18;;;;;;;1.27;1.23;;;;;;;;;;4931544;29;20549;-67
2022/06/27 08:02:44;;;;;;;1.60;1.30;;;;;;;;;;4934916;29;20431;-66
2022/06/27 08:05:10;;;;;;;0.93;0.90;;;;;;;;;;4935977;29;20424;-65
2022/06/27 08:07:37;;;;;;;1.17;1.10;;;;;;;;;;4934662;29;20459;-69
2022/06/27 08:10:04;;;;;;;0.60;0.60;;;;;;;;;;4935292;29;21015;-65
2022/06/27 08:12:30;;;;;;;0.93;0.80;;;;;;;;;;4935384;29;20522;-65
2022/06/27 08:14:56;;;;;;;4.90;0.80;;;;;;;;;;4934547;29;20944;-66
2022/06/27 08:17:23;;;;;;;0.97;0.97;;;;;;;;;;4934446;29;20518;-66
2022/06/27 08:19:50;;;;;;;1.50;1.50;;;;;;;;;;4933657;29;20471;-65
2022/06/27 08:22:16;;;;;;;2.10;1.30;;;;;;;;;;4934359;29;20492;-65
2022/06/27 08:28:04;;;;;;;1.37;1.37;;;;;;;;;;4934874;29;20414;-65
2022/06/27 08:30:30;;;;;;;0.87;0.87;;;;;;;;;;4933019;29;20913;-65
2022/06/27 08:32:58;;;;;;;0.90;0.90;;;;;;;;;;4934420;29;20459;-66
2022/06/27 08:35:24;;;;;;;1.50;1.40;;;;;;;;;;4934825;29;20452;-64
2022/06/27 08:37:54;;;;;;;1.03;0.80;;;;;;;;;;4933556;29;20930;-64
2022/06/27 08:40:23;;;;;;;1.67;0.90;;;;;;;;;;4933589;29;20536;-64
2022/06/27 08:42:49;;;;;;;0.90;0.90;;;;;;;;;;4934094;29;20440;-64
2022/06/27 08:48:41;;;;;;;2.77;1.30;;;;;;;;;;4933181;29;20478;-64
2022/06/27 08:51:07;;;;;;;1.10;1.10;;;;;;;;;;4934659;29;20967;-64
2022/06/27 08:53:38;;;;;;;2.50;1.33;;;;;;;;;;4934386;29;20932;-64
2022/06/27 08:56:05;;;;;;;1.20;1.20;;;;;;;;;;4934336;29;20440;-64
2022/06/27 08:58:31;;;;;;;0.80;0.80;;;;;;;;;;4932213;29;20506;-64
2022/06/27 09:00:57;;;;;;;3.33;1.03;;;;;;;;;;4930805;29;20870;-65
2022/06/27 09:03:24;;;;;;;0.63;0.63;;;;;;;;;;4932893;29;20416;-64
2022/06/27 09:18:08;;;;;;;2.33;0.60;;;;;;;;;;4930463;29;21076;-64
2022/06/27 09:36:04;;;;;;;1.17;1.07;;;;;;;;;;4861364;29;21054;-78
2022/06/27 09:38:31;;;;;;;3.03;0.87;;;;;;;;;;4927636;29;20974;-77
2022/06/27 09:40:57;;;;;;;3.33;1.47;;;;;;;;;;4927487;29;20450;-80
2022/06/27 09:43:23;;;;;;;1.57;1.30;;;;;;;;;;4932270;29;20499;-82
2022/06/27 09:45:51;;;;;;;2.07;0.73;;;;;;;;;;4933937;29;20429;-81
2022/06/27 09:48:17;;;;;;;1.00;0.90;;;;;;;;;;4933345;29;20986;-81
2022/06/27 09:50:44;;;;;;;1.00;1.00;;;;;;;;;;4932656;29;20479;-80
2022/06/27 09:53:10;;;;;;;0.50;0.50;;;;;;;;;;4931129;29;20428;-79
2022/06/27 09:55:37;;;;;;;0.90;0.43;;;;;;;;;;4933559;29;20427;-80
2022/06/27 09:58:06;;;;;;;4.20;0.63;;;;;;;;;;4933502;29;20423;-81
2022/06/27 10:00:32;;;;;;;5.47;1.10;;;;;;;;;;4933314;29;20435;-80
2022/06/27 10:02:59;;;;;;;2.10;0.70;;;;;;;;;;4933002;29;20426;-81
2022/06/27 10:05:25;;;;;;;1.07;0.60;;;;;;;;;;4932742;29;20474;-81
2022/06/27 10:07:59;;;;;;;1.40;1.00;;;;;;;;;;4932399;29;20440;-80
2022/06/27 10:10:27;;;;;;;0.70;0.70;;;;;;;;;;4933425;29;20732;-81
2022/06/27 10:13:01;;;;;;;1.13;0.73;;;;;;;;;;4932825;29;20817;-81
2022/06/27 10:15:28;;;;;;;3.23;0.90;;;;;;;;;;4933311;29;20428;-80
2022/06/27 10:17:55;;;;;;;0.60;0.60;;;;;;;;;;4931939;29;20520;-81
2022/06/27 10:20:28;;;;;;;0.73;0.73;;;;;;;;;;4933258;29;20459;-82
2022/06/27 10:23:09;;;;;;;1.07;0.90;;;;;;;;;;4932487;29;20427;-81
2022/06/27 10:25:38;;;;;;;2.30;0.90;;;;;;;;;;4923671;29;20490;-82
2022/06/27 10:28:16;;;;;;;0.70;0.70;;;;;;;;;;4931241;29;20432;-77
2022/06/27 10:30:54;;;;;;;1.80;1.70;;;;;;;;;;4932312;29;21795;-81
2022/06/27 10:33:26;;;;;;;3.70;1.13;;;;;;;;;;4931701;29;20519;-81
2022/06/27 10:35:59;;;;;;;0.87;0.83;;;;;;;;;;4926839;29;20463;-80
2022/06/27 10:38:56;;;;;;;0.60;0.60;;;;;;;;;;4931068;29;20995;-79
2022/06/27 10:41:25;;;;;;;0.63;0.63;;;;;;;;;;4918278;29;20440;-79
2022/06/27 10:43:54;;;;;;;1.83;1.00;;;;;;;;;;4929003;29;20444;-77
2022/06/27 10:46:20;;;;;;;0.70;0.70;;;;;;;;;;4932139;29;20432;-77
2022/06/27 10:48:53;;;;;;;1.83;1.83;;;;;;;;;;4928056;29;20786;-75
2022/06/27 10:51:22;;;;;;;0.53;0.53;;;;;;;;;;4931829;29;20203;-77
2022/06/27 10:53:52;;;;;;;1.90;0.73;;;;;;;;;;4928094;29;20463;-80
2022/06/27 10:56:41;;;;;;;0.60;0.60;;;;;;;;;;4928342;29;20521;-78
2022/06/27 10:59:29;;;;;;;2.00;1.03;;;;;;;;;;4922896;29;20471;-77
2022/06/27 11:01:57;;;;;;;0.57;0.57;;;;;;;;;;4929859;29;20954;-81
2022/06/27 11:04:27;;;;;;;2.20;0.70;;;;;;;;;;4926390;29;20543;-77
2022/06/27 11:06:59;;;;;;;0.70;0.70;;;;;;;;;;4929873;29;20435;-82
2022/06/27 11:09:35;;;;;;;1.17;0.90;;;;;;;;;;4931613;29;20495;-81
2022/06/27 11:12:01;;;;;;;6.17;0.90;;;;;;;;;;4929951;29;20518;-81
2022/06/27 11:14:27;;;;;;;1.10;1.10;;;;;;;;;;4930986;29;20430;-80
2022/06/27 11:16:53;;;;;;;1.30;0.77;;;;;;;;;;4930540;29;20526;-81
2022/06/27 11:22:20;;;;;;;0.57;0.57;;;;;;;;;;4927027;29;20863;-77
2022/06/27 11:24:46;;;;;;;0.70;0.70;;;;;;;;;;4929526;29;20491;-77
2022/06/27 11:27:12;;;;;;;0.60;0.60;;;;;;;;;;4929672;29;20431;-78
2022/06/27 11:32:22;;;;;;;0.50;0.50;;;;;;;;;;4920316;29;20574;-81
2022/06/27 11:34:50;;;;;;;1.13;0.80;;;;;;;;;;4924140;29;20943;-78
2022/06/27 11:37:17;;;;;;;2.47;0.43;;;;;;;;;;4932833;29;20526;-81
2022/06/27 11:39:56;;;;;;;0.60;0.60;;;;;;;;;;4934225;29;20442;-81
2022/06/27 11:42:28;;;;;;;3.50;0.80;;;;;;;;;;4931631;29;20474;-77
2022/06/27 11:45:04;;;;;;;0.60;0.60;;;;;;;;;;4933580;29;20458;-77
2022/06/27 11:47:30;;;;;;;1.17;0.80;;;;;;;;;;4932331;29;20447;-81
2022/06/27 11:50:04;;;;;;;0.40;0.40;;;;;;;;;;4931165;29;20491;-80
2022/06/27 11:52:37;;;;;;;0.70;0.70;;;;;;;;;;4933712;29;20441;-80
2022/06/27 11:55:07;;;;;;;0.60;0.60;;;;;;;;;;4930777;29;20449;-81
2022/06/27 11:57:33;;;;;;;0.60;0.60;;;;;;;;;;4933666;29;20439;-82
2022/06/27 12:00:00;;;;;;;0.70;0.70;;;;;;;;;;4935014;29;20782;-78
2022/06/27 12:02:28;;;;;;;0.97;0.80;;;;;;;;;;4935317;29;20496;-81
2022/06/27 12:05:07;;;;;;;0.90;0.90;;;;;;;;;;4932624;29;20498;-80
2022/06/27 12:07:49;;;;;;;0.60;0.60;;;;;;;;;;4934687;29;20474;-83
2022/06/27 12:10:15;;;;;;;1.80;0.50;;;;;;;;;;4932609;29;20517;-78
2022/06/27 12:12:45;;;;;;;0.40;0.40;;;;;;;;;;4935194;29;20427;-79
2022/06/27 12:15:31;;;;;;;1.33;0.40;;;;;;;;;;4931944;29;20839;-81
2022/06/27 12:17:58;;;;;;;0.80;0.80;;;;;;;;;;4933064;29;20466;-80
2022/06/27 12:20:27;;;;;;;0.50;0.50;;;;;;;;;;4929473;29;20460;-76
2022/06/27 12:22:54;;;;;;;0.57;0.57;;;;;;;;;;4934346;29;20427;-76
2022/06/27 12:25:20;;;;;;;0.73;0.60;;;;;;;;;;4933468;29;20432;-76
2022/06/27 12:27:46;;;;;;;0.80;0.80;;;;;;;;;;4932784;29;20436;-75
2022/06/27 12:30:13;;;;;;;0.67;0.67;;;;;;;;;;4932174;29;20525;-68
2022/06/27 12:32:40;;;;;;;0.70;0.70;;;;;;;;;;4927779;29;20448;-75
2022/06/27 12:35:06;;;;;;;0.63;0.63;;;;;;;;;;4933205;29;20527;-76
2022/06/27 12:37:34;;;;;;;0.60;0.50;;;;;;;;;;4932917;29;20478;-78
2022/06/27 12:40:00;;;;;;;0.60;0.60;;;;;;;;;;4934170;29;20456;-79
2022/06/27 12:42:26;;;;;;;0.50;0.50;;;;;;;;;;4932049;29;20444;-79
2022/06/27 12:44:52;;;;;;;0.60;0.60;;;;;;;;;;4930777;29;20440;-77
2022/06/27 12:47:18;;;;;;;0.73;0.60;;;;;;;;;;4931378;29;20955;-80
2022/06/27 12:49:44;;;;;;;0.60;0.60;;;;;;;;;;4934836;29;20569;-75
2022/06/27 12:52:10;;;;;;;0.60;0.60;;;;;;;;;;4933476;29;20527;-78
2022/06/27 12:54:36;;;;;;;0.63;0.63;;;;;;;;;;4933822;29;20206;-78
2022/06/27 12:57:04;;;;;;;0.50;0.50;;;;;;;;;;4930676;29;20870;-77
2022/06/27 12:59:29;;;;;;;0.60;0.60;;;;;;;;;;4933720;29;20812;-77
2022/06/27 13:01:56;;;;;;;5.40;0.60;;;;;;;;;;4932852;29;20424;-75
2022/06/27 13:04:21;;;;;;;0.50;0.50;;;;;;;;;;4930109;29;20442;-77
2022/06/27 13:06:47;;;;;;;0.60;0.60;;;;;;;;;;4931110;29;20576;-79
2022/06/27 13:09:13;;;;;;;0.70;0.70;;;;;;;;;;4929957;29;20566;-80
2022/06/27 13:11:39;;;;;;;4.93;2.27;;;;;;;;;;4930603;29;20435;-77
2022/06/27 13:14:05;;;;;;;2.10;0.80;;;;;;;;;;4930241;29;20916;-76
2022/06/27 13:16:31;;;;;;;9.53;0.70;;;;;;;;;;4927552;29;20444;-78
2022/06/27 13:18:57;;;;;;;0.50;0.50;;;;;;;;;;4932256;29;20797;-79
2022/06/27 13:21:23;;;;;;;1.80;1.00;;;;;;;;;;4931317;29;20530;-78
2022/06/27 13:23:51;;;;;;;2.33;0.77;;;;;;;;;;4930304;29;20945;-79
2022/06/27 13:26:17;;;;;;;0.50;0.50;;;;;;;;;;4933212;29;20515;-75
2022/06/27 13:28:43;;;;;;;1.03;0.70;;;;;;;;;;4934013;29;20431;-79
2022/06/27 13:31:09;;;;;;;2.10;0.70;;;;;;;;;;4933160;29;20436;-79
2022/06/27 13:33:35;;;;;;;1.40;1.40;;;;;;;;;;4932193;29;20439;-75
2022/06/27 13:36:01;;;;;;;2.40;1.27;;;;;;;;;;4931729;29;20538;-75
2022/06/27 13:38:27;;;;;;;0.80;0.80;;;;;;;;;;4930806;29;20491;-76
2022/06/27 13:40:53;;;;;;;0.60;0.60;;;;;;;;;;4931295;29;20449;-78
2022/06/27 13:43:19;;;;;;;0.60;0.60;;;;;;;;;;4933464;29;20446;-79
2022/06/27 13:45:45;;;;;;;0.70;0.70;;;;;;;;;;4932161;29;20526;-75
2022/06/27 13:48:11;;;;;;;2.00;0.90;;;;;;;;;;4932903;29;20428;-79
2022/06/27 13:50:37;;;;;;;0.97;0.67;;;;;;;;;;4931959;29;20480;-75
2022/06/27 13:53:04;;;;;;;1.23;0.63;;;;;;;;;;4929410;29;20505;-77
2022/06/27 13:55:30;;;;;;;0.60;0.60;;;;;;;;;;4932661;29;20444;-78
2022/06/27 13:57:56;;;;;;;0.77;0.60;;;;;;;;;;4933634;29;20419;-77
2022/06/27 14:00:24;;;;;;;7.27;1.00;;;;;;;;;;4933016;29;20424;-76
2022/06/27 14:02:50;;;;;;;0.60;0.60;;;;;;;;;;4931033;29;20444;-77
2022/06/27 14:05:17;;;;;;;1.13;0.80;;;;;;;;;;4930193;29;20542;-77
2022/06/27 14:07:46;;;;;;;0.80;0.80;;;;;;;;;;4929268;29;20462;-76
2022/06/27 14:10:14;;;;;;;1.07;1.07;;;;;;;;;;4932616;29;20487;-77
2022/06/27 14:12:40;;;;;;;0.90;0.90;;;;;;;;;;4932444;29;20985;-75
2022/06/27 14:15:07;;;;;;;0.97;0.97;;;;;;;;;;4930581;29;20475;-79
2022/06/27 14:17:33;;;;;;;1.03;1.03;;;;;;;;;;4932894;29;20494;-78
2022/06/27 14:19:59;;;;;;;0.50;0.50;;;;;;;;;;4931955;29;20444;-75
2022/06/27 14:22:26;;;;;;;2.00;1.00;;;;;;;;;;4932068;29;20447;-78
2022/06/27 14:24:52;;;;;;;1.00;1.00;;;;;;;;;;4932461;29;20920;-78
2022/06/27 14:27:18;;;;;;;2.40;0.80;;;;;;;;;;4931479;29;20424;-78
2022/06/27 14:29:45;;;;;;;0.70;0.70;;;;;;;;;;4930768;29;20484;-79
2022/06/27 14:32:11;;;;;;;2.37;1.37;;;;;;;;;;4931675;29;20802;-76
2022/06/27 14:34:37;;;;;;;1.27;1.27;;;;;;;;;;4931484;29;20802;-78
2022/06/27 14:37:03;;;;;;;1.17;0.70;;;;;;;;;;4931085;29;20795;-78
2022/06/27 14:39:29;;;;;;;1.17;1.17;;;;;;;;;;4932329;29;20444;-78
2022/06/27 14:41:55;;;;;;;0.73;0.73;;;;;;;;;;4931449;29;20778;-77
2022/06/27 14:44:21;;;;;;;1.57;0.67;;;;;;;;;;4925567;29;20463;-78
2022/06/27 14:46:47;;;;;;;0.63;0.63;;;;;;;;;;4922498;29;20550;-78
2022/06/27 14:49:13;;;;;;;0.60;0.60;;;;;;;;;;4928954;29;20475;-76
2022/06/27 14:51:39;;;;;;;0.80;0.80;;;;;;;;;;4926951;29;20443;-76
2022/06/27 14:54:09;;;;;;;0.70;0.70;;;;;;;;;;4928060;29;20436;-77
2022/06/27 14:56:35;;;;;;;0.80;0.80;;;;;;;;;;4927985;29;20467;-76
2022/06/27 14:59:00;;;;;;;1.17;1.17;;;;;;;;;;4927981;29;20440;-75
2022/06/27 15:01:26;;;;;;;0.87;0.87;;;;;;;;;;4930684;29;21015;-75
2022/06/27 15:03:52;;;;;;;0.70;0.70;;;;;;;;;;4924086;29;20789;-78
2022/06/27 15:06:19;;;;;;;1.00;1.00;;;;;;;;;;4929158;29;20436;-77
2022/06/27 15:08:45;;;;;;;1.70;0.80;;;;;;;;;;4929846;29;20486;-77
2022/06/27 15:13:57;;;;;;;0.70;0.70;;;;;;;;;;4926747;29;20883;-74
2022/06/27 15:16:24;;;;;;;0.83;0.83;;;;;;;;;;4927001;29;20448;-77
2022/06/27 15:18:50;;;;;;;5.00;1.20;;;;;;;;;;4931590;29;20919;-77
2022/06/27 15:21:16;;;;;;;0.90;0.90;;;;;;;;;;4927248;29;20498;-78
2022/06/27 15:23:42;;;;;;;1.03;1.03;;;;;;;;;;4928190;29;20447;-75
2022/06/27 15:26:08;;;;;;;0.90;0.90;;;;;;;;;;4928005;29;20436;-70